createdAt,value
2019-05-18T00:00:10.610Z,97939.68
2019-05-18T00:02:39.192Z,97931.16
2019-05-18T00:05:08.364Z,97936.43
2019-05-18T00:07:36.956Z,97933.80
2019-05-18T00:10:08.554Z,97931.33
2019-05-18T00:12:37.114Z,97936.42
2019-05-18T00:15:10.099Z,97936.92
2019-05-18T00:17:38.664Z,97940.59
2019-05-18T00:20:10.350Z,97937.83
2019-05-18T00:22:38.862Z,97937.07
2019-05-18T00:25:07.494Z,97934.42
2019-05-18T00:27:36.040Z,97931.03
2019-05-18T00:30:07.601Z,97932.52
2019-05-18T00:32:36.088Z,97939.11
2019-05-18T00:35:07.266Z,97929.75
2019-05-18T00:37:35.819Z,97928.59
2019-05-18T00:40:06.457Z,97934.47
2019-05-18T00:42:35.012Z,97931.09
2019-05-18T00:45:04.647Z,97932.84
2019-05-18T00:47:41.548Z,97934.14
2019-05-18T00:50:03.632Z,97930.42
2019-05-18T00:52:32.118Z,97933.07
2019-05-18T00:55:00.610Z,97938.70
2019-05-18T00:57:29.158Z,97934.14
2019-05-18T00:59:57.647Z,97931.77
2019-05-18T01:02:26.129Z,97934.22
2019-05-18T01:04:54.623Z,97938.75
2019-05-18T01:07:23.134Z,97938.31
2019-05-18T01:09:51.677Z,97943.44
2019-05-18T01:12:20.149Z,97933.66
2019-05-18T01:14:48.705Z,97930.70
2019-05-18T01:17:17.284Z,97928.68
2019-05-18T01:19:45.780Z,97940.14
2019-05-18T01:22:14.284Z,97942.27
2019-05-18T01:24:42.833Z,97941.63
2019-05-18T01:27:11.347Z,97951.12
2019-05-18T01:29:39.820Z,97950.77
2019-05-18T01:32:08.309Z,97948.70
2019-05-18T01:34:36.818Z,97951.33
2019-05-18T01:37:05.319Z,97958.45
2019-05-18T01:39:33.863Z,97958.41
2019-05-18T01:42:02.385Z,97956.20
2019-05-18T01:44:30.854Z,97941.06
2019-05-18T01:46:59.347Z,97944.75
2019-05-18T01:49:27.859Z,97944.63
2019-05-18T01:51:56.363Z,97949.69
2019-05-18T01:54:24.825Z,97947.44
2019-05-18T01:56:53.311Z,97944.42
2019-05-18T01:59:21.823Z,97947.55
2019-05-18T02:01:50.312Z,97939.55
2019-05-18T02:04:18.812Z,97944.17
2019-05-18T02:06:47.302Z,97945.81
2019-05-18T02:09:15.844Z,97952.00
2019-05-18T02:11:44.327Z,97949.44
2019-05-18T02:14:12.839Z,97945.60
2019-05-18T02:16:41.325Z,97946.33
2019-05-18T02:19:09.830Z,97939.27
2019-05-18T02:21:38.347Z,97940.61
2019-05-18T02:24:06.880Z,97939.11
2019-05-18T02:26:35.512Z,97935.87
2019-05-18T02:29:04.904Z,97933.77
2019-05-18T02:31:33.416Z,97933.64
2019-05-18T02:34:01.944Z,97929.63
2019-05-18T02:36:30.441Z,97923.94
2019-05-18T02:38:58.924Z,97922.36
2019-05-18T02:41:27.400Z,97926.75
2019-05-18T02:43:55.891Z,97923.41
2019-05-18T02:46:24.379Z,97923.88
2019-05-18T02:48:52.942Z,97920.30
2019-05-18T02:51:21.475Z,97915.80
2019-05-18T02:53:49.959Z,97918.33
2019-05-18T02:56:18.465Z,97917.39
2019-05-18T02:58:46.937Z,97923.42
2019-05-18T03:01:15.447Z,97926.81
2019-05-18T03:03:43.924Z,97922.33
2019-05-18T03:06:12.435Z,97927.59
2019-05-18T03:08:41.090Z,97918.68
2019-05-18T03:11:09.661Z,97911.41
2019-05-18T03:13:38.292Z,97916.75
2019-05-18T03:16:06.772Z,97917.34
2019-05-18T03:18:35.325Z,97912.88
2019-05-18T03:21:03.875Z,97911.38
2019-05-18T03:23:32.443Z,97903.44
2019-05-18T03:26:00.916Z,97894.77
2019-05-18T03:28:29.427Z,97901.92
2019-05-18T03:30:57.935Z,97906.77
2019-05-18T03:33:29.376Z,97906.75
2019-05-18T03:35:56.634Z,97907.47
2019-05-18T03:38:25.150Z,97909.41
2019-05-18T03:40:53.629Z,97903.86
2019-05-18T03:43:22.135Z,97905.73
2019-05-18T03:45:50.609Z,97905.84
2019-05-18T03:48:19.112Z,97905.02
2019-05-18T03:50:47.584Z,97904.97
2019-05-18T03:53:18.229Z,97900.28
2019-05-18T03:55:46.279Z,97899.08
2019-05-18T03:58:14.901Z,97900.05
2019-05-18T04:00:44.314Z,97899.66
2019-05-18T04:03:12.809Z,97899.56
2019-05-18T04:05:41.279Z,97902.23
2019-05-18T04:08:09.795Z,97891.92
2019-05-18T04:10:38.322Z,97893.14
2019-05-18T04:13:06.771Z,97886.66
2019-05-18T04:15:35.273Z,97889.70
2019-05-18T04:18:04.858Z,97887.14
2019-05-18T04:20:33.366Z,97887.49
2019-05-18T04:23:01.841Z,97880.81
2019-05-18T04:25:30.345Z,97889.24
2019-05-18T04:27:58.825Z,97883.55
2019-05-18T04:30:27.314Z,97895.10
2019-05-18T04:32:55.797Z,97907.30
2019-05-18T04:35:24.297Z,97904.77
2019-05-18T04:37:52.804Z,97915.54
2019-05-18T04:40:21.425Z,97909.12
2019-05-18T04:42:49.926Z,97914.83
2019-05-18T04:45:18.472Z,97911.63
2019-05-18T04:47:48.661Z,97910.81
2019-05-18T04:50:17.220Z,97914.09
2019-05-18T04:52:45.701Z,97912.82
2019-05-18T04:55:14.285Z,97907.49
2019-05-18T04:57:42.750Z,97911.03
2019-05-18T05:00:12.005Z,97913.09
2019-05-18T05:02:40.471Z,97909.81
2019-05-18T05:05:09.113Z,97910.48
2019-05-18T05:07:37.595Z,97909.47
2019-05-18T05:10:07.321Z,97909.98
2019-05-18T05:12:35.802Z,97909.84
2019-05-18T05:15:05.783Z,97912.17
2019-05-18T05:17:34.260Z,97910.86
2019-05-18T05:20:03.237Z,97907.66
2019-05-18T05:22:31.725Z,97906.66
2019-05-18T05:25:00.237Z,97912.67
2019-05-18T05:27:28.716Z,97911.85
2019-05-18T05:29:57.271Z,97911.00
2019-05-18T05:32:25.760Z,97909.73
2019-05-18T05:34:54.220Z,97913.08
2019-05-18T05:37:31.741Z,97903.38
2019-05-18T05:40:00.289Z,97912.17
2019-05-18T05:42:28.804Z,97918.25
2019-05-18T05:44:57.318Z,97918.97
2019-05-18T05:47:25.820Z,97922.03
2019-05-18T05:49:54.306Z,97911.40
2019-05-18T05:52:22.880Z,97909.98
2019-05-18T05:54:51.357Z,97913.91
2019-05-18T05:57:19.848Z,97904.24
2019-05-18T05:59:48.370Z,97904.24
2019-05-18T06:02:16.805Z,97913.89
2019-05-18T06:04:45.286Z,97913.06
2019-05-18T06:07:13.775Z,97910.36
2019-05-18T06:09:42.249Z,97910.81
2019-05-18T06:12:10.821Z,97917.86
2019-05-18T06:14:39.302Z,97917.38
2019-05-18T06:17:08.584Z,97913.88
2019-05-18T06:19:37.187Z,97909.78
2019-05-18T06:22:05.683Z,97909.92
2019-05-18T06:24:34.162Z,97915.09
2019-05-18T06:27:02.634Z,97910.55
2019-05-18T06:29:31.139Z,97920.84
2019-05-18T06:31:59.617Z,97922.92
2019-05-18T06:34:28.108Z,97924.50
2019-05-18T06:36:56.598Z,97924.80
2019-05-18T06:39:25.065Z,97920.96
2019-05-18T06:41:53.550Z,97926.66
2019-05-18T06:44:22.043Z,97927.57
2019-05-18T06:46:50.538Z,97928.52
2019-05-18T06:49:19.014Z,97923.05
2019-05-18T06:51:47.519Z,97920.80
2019-05-18T06:54:16.060Z,97922.66
2019-05-18T06:56:44.997Z,97913.56
2019-05-18T06:59:16.439Z,97921.63
2019-05-18T07:01:45.145Z,97922.77
2019-05-18T07:04:13.619Z,97915.47
2019-05-18T07:06:42.185Z,97919.89
2019-05-18T07:09:14.320Z,97912.61
2019-05-18T07:11:43.024Z,97919.41
2019-05-18T07:14:24.983Z,97921.17
2019-05-18T07:16:41.807Z,97913.91
2019-05-18T07:19:10.466Z,97917.80
2019-05-18T07:21:38.946Z,97917.80
2019-05-18T07:24:07.452Z,97913.49
2019-05-18T07:26:36.005Z,97918.32
2019-05-18T07:29:05.790Z,97918.13
2019-05-18T07:31:34.473Z,97919.22
2019-05-18T07:34:02.967Z,97911.67
2019-05-18T07:36:33.083Z,97921.44
2019-05-18T07:39:01.600Z,97916.55
2019-05-18T07:41:30.077Z,97914.15
2019-05-18T07:43:58.580Z,97906.81
2019-05-18T07:46:27.092Z,97909.83
2019-05-18T07:48:55.557Z,97902.27
2019-05-18T07:51:36.349Z,97898.54
2019-05-18T07:53:54.309Z,97896.66
2019-05-18T07:56:22.783Z,97895.45
2019-05-18T07:58:51.295Z,97894.33
2019-05-18T08:01:19.763Z,97887.53
2019-05-18T08:03:48.267Z,97889.77
2019-05-18T08:06:16.744Z,97884.60
2019-05-18T08:08:45.257Z,97878.18
2019-05-18T08:11:13.727Z,97876.58
2019-05-18T08:13:42.217Z,97883.44
2019-05-18T08:16:10.687Z,97869.24
2019-05-18T08:18:39.219Z,97870.80
2019-05-18T08:21:07.696Z,97873.63
2019-05-18T08:23:36.186Z,97870.56
2019-05-18T08:26:04.731Z,97881.95
2019-05-18T08:28:33.238Z,97882.27
2019-05-18T08:31:01.817Z,97883.34
2019-05-18T08:33:30.369Z,97879.49
2019-05-18T08:35:58.854Z,97878.98
2019-05-18T08:38:27.336Z,97878.19
2019-05-18T08:40:55.843Z,97878.66
2019-05-18T08:43:24.326Z,97872.70
2019-05-18T08:45:52.834Z,97880.25
2019-05-18T08:48:21.341Z,97878.91
2019-05-18T08:50:49.824Z,97876.66
2019-05-18T08:53:18.321Z,97880.71
2019-05-18T08:55:46.830Z,97876.37
2019-05-18T08:58:15.312Z,97876.14
2019-05-18T09:00:43.807Z,97865.09
2019-05-18T09:03:12.325Z,97862.09
2019-05-18T09:05:41.769Z,97868.28
2019-05-18T09:08:10.247Z,97865.31
2019-05-18T09:10:38.736Z,97864.11
2019-05-18T09:13:07.210Z,97860.27
2019-05-18T09:15:35.794Z,97860.72
2019-05-18T09:18:05.215Z,97858.85
2019-05-18T09:20:33.754Z,97859.14
2019-05-18T09:23:02.274Z,97858.55
2019-05-18T09:25:30.763Z,97859.47
2019-05-18T09:27:59.241Z,97856.52
2019-05-18T09:30:27.757Z,97859.59
2019-05-18T09:32:56.235Z,97855.20
2019-05-18T09:35:24.721Z,97862.47
2019-05-18T09:37:54.753Z,97862.06
2019-05-18T09:40:23.372Z,97862.06
2019-05-18T09:42:51.862Z,97856.59
2019-05-18T09:45:20.765Z,97861.38
2019-05-18T09:47:49.339Z,97857.44
2019-05-18T09:50:18.698Z,97851.22
2019-05-18T09:52:47.174Z,97855.56
2019-05-18T09:55:16.680Z,97854.57
2019-05-18T09:57:45.168Z,97851.40
2019-05-18T10:00:15.254Z,97850.16
2019-05-18T10:02:43.809Z,97853.30
2019-05-18T10:05:12.668Z,97840.80
2019-05-18T10:07:41.102Z,97842.08
2019-05-18T10:10:10.091Z,97839.81
2019-05-18T10:12:38.801Z,97833.78
2019-05-18T10:15:08.900Z,97830.89
2019-05-18T10:17:37.458Z,97832.34
2019-05-18T10:20:07.794Z,97829.37
2019-05-18T10:22:36.291Z,97823.97
2019-05-18T10:25:07.277Z,97817.16
2019-05-18T10:27:35.718Z,97821.46
2019-05-18T10:30:08.730Z,97819.70
2019-05-18T10:32:37.302Z,97817.03
2019-05-18T10:35:08.833Z,97818.00
2019-05-18T10:37:37.812Z,97803.56
2019-05-18T10:40:09.230Z,97810.03
2019-05-18T10:42:37.693Z,97809.30
2019-05-18T10:45:07.432Z,97806.83
2019-05-18T10:47:35.945Z,97801.30
2019-05-18T10:50:09.252Z,97795.41
2019-05-18T10:52:37.814Z,97791.43
2019-05-18T10:55:08.096Z,97789.10
2019-05-18T10:57:36.678Z,97787.84
2019-05-18T11:00:09.927Z,97791.74
2019-05-18T11:02:38.383Z,97780.89
2019-05-18T11:05:09.632Z,97779.88
2019-05-18T11:07:38.187Z,97781.05
2019-05-18T11:10:08.797Z,97776.84
2019-05-18T11:12:37.332Z,97777.14
2019-05-18T11:15:08.161Z,97780.03
2019-05-18T11:17:36.618Z,97777.24
2019-05-18T11:20:09.400Z,97776.30
2019-05-18T11:22:38.379Z,97773.12
2019-05-18T11:25:08.753Z,97767.52
2019-05-18T11:27:37.373Z,97761.30
2019-05-18T11:30:08.635Z,97759.19
2019-05-18T11:32:37.814Z,97764.87
2019-05-18T11:35:07.816Z,97759.08
2019-05-18T11:37:36.357Z,97762.63
2019-05-18T11:40:10.313Z,97761.92
2019-05-18T11:42:43.183Z,97756.19
2019-05-18T11:45:14.815Z,97757.49
2019-05-18T11:47:42.833Z,97754.87
2019-05-18T11:50:12.541Z,97756.32
2019-05-18T11:52:41.120Z,97747.81
2019-05-18T11:55:09.843Z,97757.46
2019-05-18T11:57:38.336Z,97754.34
2019-05-18T12:00:09.322Z,97750.08
2019-05-18T12:02:37.888Z,97753.16
2019-05-18T12:05:07.869Z,97747.69
2019-05-18T12:07:36.415Z,97750.69
2019-05-18T12:10:08.468Z,97742.47
2019-05-18T12:12:37.027Z,97740.37
2019-05-18T12:15:07.458Z,97740.41
2019-05-18T12:17:35.970Z,97752.03
2019-05-18T12:20:09.145Z,97744.63
2019-05-18T12:22:37.753Z,97744.54
2019-05-18T12:25:09.870Z,97745.56
2019-05-18T12:27:38.436Z,97740.88
2019-05-18T12:30:10.748Z,97752.34
2019-05-18T12:32:39.258Z,97741.36
2019-05-18T12:35:10.860Z,97737.65
2019-05-18T12:37:39.364Z,97732.13
2019-05-18T12:40:09.049Z,97731.83
2019-05-18T12:42:37.847Z,97728.89
2019-05-18T12:48:34.028Z,97730.03
2019-05-18T12:51:02.532Z,97719.38
2019-05-18T12:53:31.005Z,97716.53
2019-05-18T12:55:59.480Z,97716.45
2019-05-18T12:58:28.018Z,97724.30
2019-05-18T13:00:56.572Z,97705.51
2019-05-18T13:03:25.091Z,97710.89
2019-05-18T13:05:53.590Z,97708.47
2019-05-18T13:08:22.077Z,97705.20
2019-05-18T13:10:50.625Z,97705.31
2019-05-18T13:13:19.041Z,97700.64
2019-05-18T13:15:47.615Z,97695.88
2019-05-18T13:18:16.096Z,97696.29
2019-05-18T13:20:46.333Z,97688.48
2019-05-18T13:23:14.810Z,97688.75
2019-05-18T13:25:43.310Z,97684.40
2019-05-18T13:28:11.801Z,97686.32
2019-05-18T13:30:40.371Z,97681.67
2019-05-18T13:33:08.829Z,97677.63
2019-05-18T13:35:37.821Z,97680.36
2019-05-18T13:38:06.448Z,97672.23
2019-05-18T13:40:34.922Z,97672.00
2019-05-18T13:43:03.500Z,97664.98
2019-05-18T13:45:32.099Z,97665.45
2019-05-18T13:48:00.586Z,97671.36
2019-05-18T13:50:29.159Z,97668.73
2019-05-18T13:52:57.630Z,97661.00
2019-05-18T13:55:26.689Z,97661.75
2019-05-18T13:57:55.188Z,97660.91
2019-05-18T14:00:23.749Z,97654.89
2019-05-18T14:02:52.286Z,97653.15
2019-05-18T14:05:21.238Z,97653.66
2019-05-18T14:07:49.711Z,97652.59
2019-05-18T14:10:18.513Z,97646.33
2019-05-18T14:12:47.115Z,97645.16
2019-05-18T14:15:15.705Z,97641.97
2019-05-18T14:17:44.226Z,97649.59
2019-05-18T14:20:13.134Z,97645.52
2019-05-18T14:22:41.638Z,97649.20
2019-05-18T14:25:19.457Z,97644.45
2019-05-18T14:27:41.046Z,97633.19
2019-05-18T14:30:11.540Z,97633.19
2019-05-18T14:32:40.125Z,97631.22
2019-05-18T14:35:09.034Z,97626.00
2019-05-18T14:37:37.548Z,97624.55
2019-05-18T14:40:08.273Z,97618.65
2019-05-18T14:42:36.830Z,97621.19
2019-05-18T14:45:08.520Z,97631.13
2019-05-18T14:47:36.276Z,97622.36
2019-05-18T14:50:06.230Z,97622.12
2019-05-18T14:52:34.785Z,97625.19
2019-05-18T14:55:03.670Z,97625.09
2019-05-18T14:57:32.233Z,97630.40
2019-05-18T15:00:02.397Z,97623.74
2019-05-18T15:02:33.188Z,97619.64
2019-05-18T15:05:02.263Z,97615.53
2019-05-18T15:07:30.848Z,97619.91
2019-05-18T15:09:59.459Z,97621.83
2019-05-18T15:12:28.000Z,97620.27
2019-05-18T15:14:56.476Z,97620.66
2019-05-18T15:17:24.953Z,97620.22
2019-05-18T15:19:53.496Z,97623.19
2019-05-18T15:22:21.996Z,97614.16
2019-05-18T15:24:50.483Z,97617.35
2019-05-18T15:27:18.954Z,97617.88
2019-05-18T15:29:47.460Z,97615.31
2019-05-18T15:32:15.964Z,97621.06
2019-05-18T15:34:44.431Z,97630.42
2019-05-18T15:37:12.940Z,97642.21
2019-05-18T15:39:41.400Z,97646.37
2019-05-18T15:42:13.314Z,97652.41
2019-05-18T15:44:41.792Z,97654.26
2019-05-18T15:47:10.464Z,97673.69
2019-05-18T15:49:38.980Z,97706.20
2019-05-18T15:52:07.438Z,97713.95
2019-05-18T15:54:36.361Z,97715.97
2019-05-18T15:57:05.112Z,97714.98
2019-05-18T15:59:34.392Z,97715.64
2019-05-18T16:02:06.478Z,97730.48
2019-05-18T16:04:33.962Z,97741.50
2019-05-18T16:07:02.459Z,97750.01
2019-05-18T16:09:30.951Z,97748.33
2019-05-18T16:11:59.420Z,97743.77
2019-05-18T16:14:27.920Z,97730.73
2019-05-18T16:16:56.395Z,97715.37
2019-05-18T16:19:24.975Z,97693.92
2019-05-18T16:21:53.499Z,97683.11
2019-05-18T16:24:22.061Z,97678.84
2019-05-18T16:26:50.609Z,97678.33
2019-05-18T16:29:19.156Z,97671.53
2019-05-18T16:31:47.603Z,97665.31
2019-05-18T16:34:16.093Z,97664.75
2019-05-18T16:36:44.563Z,97659.44
2019-05-18T16:39:13.121Z,97661.11
2019-05-18T16:41:41.602Z,97661.11
2019-05-18T16:44:10.111Z,97663.11
2019-05-18T16:46:38.589Z,97652.09
2019-05-18T16:49:07.153Z,97659.65
2019-05-18T16:51:35.641Z,97655.79
2019-05-18T16:54:04.889Z,97657.38
2019-05-18T16:56:35.550Z,97653.67
2019-05-18T16:59:04.736Z,97667.16
2019-05-18T17:01:33.229Z,97673.74
2019-05-18T17:04:01.797Z,97667.77
2019-05-18T17:06:30.285Z,97673.20
2019-05-18T17:08:58.844Z,97674.45
2019-05-18T17:11:27.319Z,97678.78
2019-05-18T17:13:55.800Z,97681.23
2019-05-18T17:16:24.278Z,97682.88
2019-05-18T17:18:52.778Z,97670.41
2019-05-18T17:21:21.252Z,97676.84
2019-05-18T17:23:49.773Z,97669.94
2019-05-18T17:26:18.311Z,97676.22
2019-05-18T17:28:46.796Z,97673.42
2019-05-18T17:31:15.280Z,97668.42
2019-05-18T17:33:43.759Z,97677.33
2019-05-18T17:36:12.277Z,97681.97
2019-05-18T17:38:40.781Z,97682.63
2019-05-18T17:41:09.316Z,97687.47
2019-05-18T17:43:37.896Z,97698.02
2019-05-18T17:46:06.410Z,97705.48
2019-05-18T17:48:34.937Z,97707.52
2019-05-18T17:51:03.448Z,97717.56
2019-05-18T17:53:31.958Z,97716.59
2019-05-18T17:56:00.445Z,97717.81
2019-05-18T17:58:28.925Z,97715.66
2019-05-18T18:00:57.406Z,97710.05
2019-05-18T18:03:25.914Z,97711.65
2019-05-18T18:05:54.395Z,97702.85
2019-05-18T18:08:22.905Z,97701.86
2019-05-18T18:10:53.709Z,97696.01
2019-05-18T18:13:22.296Z,97687.77
2019-05-18T18:15:50.764Z,97686.27
2019-05-18T18:18:19.271Z,97687.31
2019-05-18T18:20:47.819Z,97685.54
2019-05-18T18:23:16.325Z,97686.13
2019-05-18T18:25:44.810Z,97682.41
2019-05-18T18:28:13.656Z,97678.94
2019-05-18T18:30:42.133Z,97684.02
2019-05-18T18:33:10.708Z,97683.76
2019-05-18T18:35:39.784Z,97692.30
2019-05-18T18:38:08.441Z,97685.53
2019-05-18T18:40:36.951Z,97682.52
2019-05-18T18:43:05.421Z,97683.25
2019-05-18T18:45:33.998Z,97688.12
2019-05-18T18:48:02.560Z,97681.75
2019-05-18T18:50:33.163Z,97676.77
2019-05-18T18:53:01.635Z,97676.60
2019-05-18T18:55:30.149Z,97672.45
2019-05-18T18:57:58.633Z,97673.34
2019-05-18T19:00:27.146Z,97682.13
2019-05-18T19:02:55.623Z,97683.45
2019-05-18T19:05:24.104Z,97690.63
2019-05-18T19:07:52.594Z,97693.81
2019-05-18T19:10:21.078Z,97692.31
2019-05-18T19:12:49.605Z,97680.57
2019-05-18T19:15:18.827Z,97679.50
2019-05-18T19:17:47.348Z,97668.77
2019-05-18T19:20:16.003Z,97681.21
2019-05-18T19:22:44.517Z,97677.43
2019-05-18T19:25:14.707Z,97678.49
2019-05-18T19:27:54.074Z,97686.44
2019-05-18T19:30:13.798Z,97688.05
2019-05-18T19:32:42.300Z,97698.03
2019-05-18T19:35:10.941Z,97695.35
2019-05-18T19:37:39.415Z,97684.86
2019-05-18T19:40:09.475Z,97685.38
2019-05-18T19:42:38.088Z,97693.39
2019-05-18T19:45:08.837Z,97686.94
2019-05-18T19:47:37.338Z,97685.17
2019-05-18T19:50:07.872Z,97691.16
2019-05-18T19:52:36.363Z,97684.16
2019-05-18T19:55:06.579Z,97690.91
2019-05-18T19:57:35.067Z,97687.02
2019-05-18T20:00:05.724Z,97679.80
2019-05-18T20:02:34.246Z,97677.78
2019-05-18T20:05:08.466Z,97685.52
2019-05-18T20:07:36.019Z,97679.66
2019-05-18T20:10:10.434Z,97678.06
2019-05-18T20:12:38.940Z,97686.80
2019-05-18T20:15:09.654Z,97691.65
2019-05-18T20:17:38.228Z,97686.98
2019-05-18T20:20:08.447Z,97686.16
2019-05-18T20:22:36.922Z,97683.53
2019-05-18T20:25:06.066Z,97683.36
2019-05-18T20:27:34.649Z,97687.09
2019-05-18T20:30:03.211Z,97681.95
2019-05-18T20:32:31.679Z,97678.87
2019-05-18T20:35:00.164Z,97673.91
2019-05-18T20:37:28.678Z,97668.25
2019-05-18T20:39:57.137Z,97664.59
2019-05-18T20:42:25.654Z,97664.84
2019-05-18T20:44:54.162Z,97669.31
2019-05-18T20:47:22.690Z,97660.95
2019-05-18T20:49:51.172Z,97652.58
2019-05-18T20:52:19.666Z,97655.30
2019-05-18T20:54:48.156Z,97652.38
2019-05-18T20:57:16.648Z,97661.48
2019-05-18T20:59:45.131Z,97664.08
2019-05-18T21:02:16.004Z,97664.02
2019-05-18T21:04:44.484Z,97659.06
2019-05-18T21:07:16.025Z,97665.13
2019-05-18T21:09:44.533Z,97666.45
2019-05-18T21:12:16.234Z,97664.75
2019-05-18T21:14:44.709Z,97666.16
2019-05-18T21:17:13.226Z,97666.89
2019-05-18T21:19:41.711Z,97671.80
2019-05-18T21:22:10.198Z,97671.69
2019-05-18T21:24:38.697Z,97670.35
2019-05-18T21:27:07.173Z,97666.64
2019-05-18T21:29:35.663Z,97667.31
2019-05-18T21:32:04.726Z,97665.34
2019-05-18T21:34:33.252Z,97657.08
2019-05-18T21:37:01.734Z,97660.94
2019-05-18T21:39:30.225Z,97665.16
2019-05-18T21:41:58.740Z,97661.58
2019-05-18T21:44:27.264Z,97660.91
2019-05-18T21:46:55.751Z,97660.54
2019-05-18T21:49:24.246Z,97658.38
2019-05-18T21:51:52.734Z,97654.61
2019-05-18T21:54:21.291Z,97652.88
2019-05-18T21:56:49.808Z,97655.08
2019-05-18T21:59:18.294Z,97652.11
2019-05-18T22:01:46.778Z,97647.11
2019-05-18T22:04:15.420Z,97648.34
2019-05-18T22:06:43.963Z,97648.27
2019-05-18T22:09:12.445Z,97643.88
2019-05-18T22:11:40.958Z,97649.25
2019-05-18T22:14:09.438Z,97642.33
2019-05-18T22:16:37.960Z,97641.75
2019-05-18T22:19:06.451Z,97633.30
2019-05-18T22:21:34.976Z,97632.05
2019-05-18T22:24:03.532Z,97633.94
2019-05-18T22:26:32.042Z,97624.56
2019-05-18T22:29:00.521Z,97625.53
2019-05-18T22:31:29.077Z,97618.31
2019-05-18T22:33:57.599Z,97615.67
2019-05-18T22:36:26.079Z,97620.87
2019-05-18T22:38:54.593Z,97614.70
2019-05-18T22:41:23.086Z,97610.48
2019-05-18T22:43:51.665Z,97615.78
2019-05-18T22:46:20.263Z,97612.03
2019-05-18T22:48:48.747Z,97613.30
2019-05-18T22:51:17.251Z,97605.96
2019-05-18T22:53:46.649Z,97608.68
2019-05-18T22:56:15.249Z,97606.61
2019-05-18T22:58:43.762Z,97609.05
2019-05-18T23:01:12.249Z,97605.88
2019-05-18T23:03:40.802Z,97595.52
2019-05-18T23:06:09.329Z,97601.74
2019-05-18T23:08:37.875Z,97598.73
2019-05-18T23:11:06.349Z,97604.15
2019-05-18T23:13:34.861Z,97603.36
2019-05-18T23:16:03.335Z,97607.29
2019-05-18T23:18:31.839Z,97606.68
2019-05-18T23:21:00.351Z,97621.00
2019-05-18T23:23:28.839Z,97612.62
2019-05-18T23:25:57.395Z,97604.33
2019-05-18T23:28:25.875Z,97600.77
2019-05-18T23:30:54.377Z,97606.15
2019-05-18T23:33:22.856Z,97607.53
2019-05-18T23:35:51.377Z,97605.92
2019-05-18T23:38:19.860Z,97603.98
2019-05-18T23:40:48.437Z,97605.72
2019-05-18T23:43:16.972Z,97599.46
2019-05-18T23:45:45.424Z,97591.90
2019-05-18T23:48:13.938Z,97587.94
2019-05-18T23:50:42.402Z,97587.19
2019-05-18T23:53:10.897Z,97586.39
2019-05-18T23:55:39.412Z,97585.55
2019-05-18T23:58:07.900Z,97584.54
